createdAt,value
2019-05-05T00:00:04.741Z,62.21
2019-05-05T00:05:04.731Z,62.18
2019-05-05T00:10:04.612Z,62.18
2019-05-05T00:15:05.181Z,62.18
2019-05-05T00:20:02.736Z,62.21
2019-05-05T00:25:05.069Z,62.22
2019-05-05T00:30:02.607Z,62.25
2019-05-05T00:35:04.356Z,62.28
2019-05-05T00:40:04.856Z,62.29
2019-05-05T00:45:02.504Z,62.39
2019-05-05T00:50:05.184Z,62.41
2019-05-05T00:55:04.553Z,62.48
2019-05-05T01:00:05.008Z,62.47
2019-05-05T01:05:04.543Z,62.52
2019-05-05T01:10:04.941Z,62.51
2019-05-05T01:15:04.479Z,62.58
2019-05-05T01:20:04.563Z,62.58
2019-05-05T01:25:05.266Z,62.66
2019-05-05T01:30:04.660Z,62.71
2019-05-05T01:35:05.278Z,62.73
2019-05-05T01:40:04.379Z,62.74
2019-05-05T01:45:04.394Z,62.77
2019-05-05T01:50:15.255Z,62.81
2019-05-05T01:55:05.158Z,62.87
2019-05-05T02:00:04.273Z,62.9
2019-05-05T02:05:04.606Z,62.96
2019-05-05T02:10:05.795Z,62.98
2019-05-05T02:15:04.237Z,63.28
2019-05-05T02:20:02.718Z,63.59
2019-05-05T02:25:04.256Z,63.95
2019-05-05T02:30:05.728Z,63.96
2019-05-05T02:35:02.831Z,63.96
2019-05-05T02:40:07.249Z,63.88
2019-05-05T02:45:05.557Z,63.79
2019-05-05T02:50:05.222Z,63.75
2019-05-05T02:55:04.099Z,63.7
2019-05-05T03:00:04.503Z,63.7
2019-05-05T03:05:04.184Z,63.69
2019-05-05T03:10:03.757Z,63.7
2019-05-05T03:15:04.227Z,63.71
2019-05-05T03:20:04.121Z,63.71
2019-05-05T03:25:04.633Z,63.74
2019-05-05T03:30:05.093Z,63.75
2019-05-05T03:35:04.289Z,63.83
2019-05-05T03:40:04.291Z,63.86
2019-05-05T03:45:04.184Z,63.89
2019-05-05T03:50:04.346Z,63.86
2019-05-05T03:55:03.842Z,63.99
2019-05-05T04:00:04.311Z,64.07
2019-05-05T04:05:04.012Z,64.11
2019-05-05T04:10:03.703Z,64.18
2019-05-05T04:15:03.726Z,64.25
2019-05-05T04:20:03.896Z,64.32
2019-05-05T04:25:04.612Z,64.57
2019-05-05T04:30:03.875Z,64.61
2019-05-05T04:35:03.710Z,64.72
2019-05-05T04:40:04.177Z,64.83
2019-05-05T04:45:04.240Z,64.99
2019-05-05T04:50:04.356Z,65.05
2019-05-05T04:55:03.851Z,65.4
2019-05-05T05:00:04.198Z,65.52
2019-05-05T05:05:04.010Z,65.64
2019-05-05T05:10:03.952Z,65.86
2019-05-05T05:15:04.327Z,66.09
2019-05-05T05:20:03.762Z,66.16
2019-05-05T05:25:04.478Z,66.51
2019-05-05T05:30:04.666Z,66.68
2019-05-05T05:35:03.787Z,66.98
2019-05-05T05:40:03.916Z,66.94
2019-05-05T05:45:04.073Z,66.84
2019-05-05T05:50:04.048Z,66.71
2019-05-05T05:55:04.113Z,66.68
2019-05-05T06:00:04.094Z,66.67
2019-05-05T06:05:04.348Z,66.74
2019-05-05T06:10:03.773Z,66.81
2019-05-05T06:15:03.852Z,66.88
2019-05-05T06:20:04.050Z,66.97
2019-05-05T06:25:06.122Z,67.02
2019-05-05T06:30:04.493Z,67.03
2019-05-05T06:35:03.702Z,67.19
2019-05-05T06:40:03.771Z,67.44
2019-05-05T06:45:04.131Z,67.33
2019-05-05T06:50:03.654Z,67.31
2019-05-05T06:55:03.749Z,67.23
2019-05-05T07:00:03.829Z,67.23
2019-05-05T07:05:04.098Z,66.95
2019-05-05T07:10:03.728Z,66.82
2019-05-05T07:15:04.224Z,66.81
2019-05-05T07:20:04.341Z,66.63
2019-05-05T07:25:04.724Z,66.39
2019-05-05T07:30:04.774Z,66.24
2019-05-05T07:35:04.075Z,66.13
2019-05-05T07:40:04.255Z,66.07
2019-05-05T07:45:05.433Z,65.8
2019-05-05T07:50:04.130Z,65.73
2019-05-05T07:55:03.638Z,65.68
2019-05-05T08:00:05.269Z,65.67
2019-05-05T08:05:04.642Z,65.45
2019-05-05T08:10:04.603Z,65.4
2019-05-05T08:15:04.323Z,65.29
2019-05-05T08:20:03.982Z,65.15
2019-05-05T08:25:04.088Z,65.06
2019-05-05T08:30:05.172Z,64.99
2019-05-05T08:35:04.344Z,64.77
2019-05-05T08:40:04.293Z,64.57
2019-05-05T08:45:04.577Z,64.26
2019-05-05T08:50:04.145Z,64.03
2019-05-05T08:55:04.686Z,63.71
2019-05-05T09:00:04.869Z,63.67
2019-05-05T09:05:04.251Z,63.59
2019-05-05T09:10:03.856Z,63.19
2019-05-05T09:15:04.413Z,62.67
2019-05-05T09:20:04.552Z,62.18
2019-05-05T09:25:04.327Z,61.67
2019-05-05T09:30:03.913Z,61.37
2019-05-05T09:35:04.599Z,61.36
2019-05-05T09:40:04.554Z,61.78
2019-05-05T09:45:04.758Z,62.47
2019-05-05T09:50:03.905Z,62.01
2019-05-05T09:55:03.874Z,59.94
2019-05-05T10:00:04.621Z,60.4
2019-05-05T10:05:03.984Z,60.61
2019-05-05T10:10:04.550Z,60.67
2019-05-05T10:15:07.169Z,60.39
2019-05-05T10:20:03.937Z,60.41
2019-05-05T10:25:04.163Z,60.29
2019-05-05T10:30:04.146Z,59.92
2019-05-05T10:35:04.420Z,59.15
2019-05-05T10:40:03.716Z,59.17
2019-05-05T10:45:04.376Z,59.67
2019-05-05T10:50:04.945Z,59.75
2019-05-05T10:55:03.959Z,59.85
2019-05-05T11:00:10.116Z,59.56
2019-05-05T11:05:04.068Z,59.28
2019-05-05T11:10:03.575Z,59.22
2019-05-05T11:15:04.053Z,58.75
2019-05-05T11:20:03.739Z,58.24
2019-05-05T11:25:05.070Z,57.98
2019-05-05T11:30:04.024Z,57.62
2019-05-05T11:35:04.291Z,56.24
2019-05-05T11:40:04.227Z,55.71
2019-05-05T11:45:04.262Z,55.31
2019-05-05T11:50:04.401Z,54.55
2019-05-05T12:00:03.836Z,54.27
2019-05-05T12:05:04.598Z,54.06
2019-05-05T12:10:03.053Z,53.65
2019-05-05T12:15:04.347Z,53.84
2019-05-05T12:20:04.747Z,54.11
2019-05-05T12:25:04.096Z,54.32
2019-05-05T12:30:03.808Z,54.41
2019-05-05T12:35:04.216Z,54.45
2019-05-05T12:40:03.998Z,54.65
2019-05-05T12:45:04.424Z,54.83
2019-05-05T12:50:03.171Z,54.79
2019-05-05T12:55:04.978Z,55.83
2019-05-05T13:00:04.234Z,55.33
2019-05-05T13:05:04.255Z,54.28
2019-05-05T13:10:04.699Z,54.14
2019-05-05T13:15:04.071Z,54.56
2019-05-05T13:20:02.653Z,54.66
2019-05-05T13:25:04.605Z,54.58
2019-05-05T13:30:04.335Z,54.71
2019-05-05T13:35:04.036Z,55.21
2019-05-05T13:40:04.462Z,55.6
2019-05-05T13:45:03.972Z,56.1
2019-05-05T13:50:03.679Z,56.35
2019-05-05T13:55:03.303Z,56.94
2019-05-05T14:00:03.776Z,57.29
2019-05-05T14:05:04.593Z,57.41
2019-05-05T14:10:03.923Z,57.29
2019-05-05T14:15:04.058Z,55.75
2019-05-05T14:20:09.442Z,54.88
2019-05-05T14:25:04.374Z,52.87
2019-05-05T14:30:04.099Z,52.5
2019-05-05T14:35:03.965Z,50.84
2019-05-05T14:40:04.521Z,50.62
2019-05-05T14:45:04.737Z,50.83
2019-05-05T14:50:04.674Z,50.23
2019-05-05T14:55:03.890Z,49.6
2019-05-05T15:00:04.517Z,49.12
2019-05-05T15:05:03.764Z,48.78
2019-05-05T15:10:04.220Z,48.62
2019-05-05T15:15:03.983Z,48.32
2019-05-05T15:20:03.150Z,48.77
2019-05-05T15:25:04.170Z,48.13
2019-05-05T15:30:04.407Z,48.4
2019-05-05T15:35:04.001Z,48.58
2019-05-05T15:40:03.985Z,49.17
2019-05-05T15:45:03.992Z,49.24
2019-05-05T15:50:04.488Z,49.47
2019-05-05T15:55:04.513Z,49.62
2019-05-05T16:00:03.017Z,50.25
2019-05-05T16:05:04.407Z,50.4
2019-05-05T16:10:34.796Z,50.29
2019-05-05T16:15:04.481Z,50.46
2019-05-05T16:20:04.551Z,50.29
2019-05-05T16:25:04.277Z,50.47
2019-05-05T16:30:04.067Z,50.5
2019-05-05T16:35:05.849Z,50.32
2019-05-05T16:40:03.473Z,50.46
2019-05-05T16:45:04.471Z,50.12
2019-05-05T16:50:04.181Z,50.02
2019-05-05T16:55:04.603Z,49.76
2019-05-05T17:00:03.199Z,50.18
2019-05-05T17:05:04.348Z,51.03
2019-05-05T17:10:06.066Z,50.88
2019-05-05T17:15:01.996Z,50.56
2019-05-05T17:20:04.443Z,50.58
2019-05-05T17:25:03.107Z,50.52
2019-05-05T17:30:04.336Z,50.62
2019-05-05T17:35:03.786Z,51.01
2019-05-05T17:40:04.183Z,51.2
2019-05-05T17:45:03.730Z,51.48
2019-05-05T17:50:04.179Z,51.68
2019-05-05T17:55:04.566Z,51.98
2019-05-05T18:00:04.319Z,52.19
2019-05-05T18:05:04.526Z,52.2
2019-05-05T18:10:04.137Z,52.45
2019-05-05T18:15:04.491Z,52.52
2019-05-05T18:20:04.454Z,52.63
2019-05-05T18:25:02.955Z,52.68
2019-05-05T18:30:03.975Z,52.82
2019-05-05T18:35:06.368Z,52.94
2019-05-05T18:40:04.068Z,53.07
2019-05-05T18:45:03.761Z,53.24
2019-05-05T18:50:04.144Z,53.5
2019-05-05T18:55:04.392Z,53.85
2019-05-05T19:00:03.787Z,54.0
2019-05-05T19:05:04.608Z,54.19
2019-05-05T19:10:04.065Z,54.31
2019-05-05T19:15:04.355Z,54.6
2019-05-05T19:20:04.292Z,54.82
2019-05-05T19:25:04.264Z,55.02
2019-05-05T19:30:04.452Z,55.22
2019-05-05T19:35:03.972Z,55.46
2019-05-05T19:40:04.327Z,55.61
2019-05-05T19:45:04.279Z,55.75
2019-05-05T19:50:02.801Z,55.86
2019-05-05T19:55:04.407Z,56.22
2019-05-05T20:00:04.047Z,56.36
2019-05-05T20:05:04.302Z,56.61
2019-05-05T20:10:04.037Z,56.71
2019-05-05T20:15:04.121Z,56.81
2019-05-05T20:20:04.450Z,56.84
2019-05-05T20:25:04.364Z,56.99
2019-05-05T20:30:06.284Z,57.03
2019-05-05T20:35:04.066Z,57.16
2019-05-05T20:40:03.961Z,57.23
2019-05-05T20:45:04.125Z,57.29
2019-05-05T20:50:04.699Z,57.38
2019-05-05T20:55:04.793Z,57.49
2019-05-05T21:00:03.376Z,57.55
2019-05-05T21:05:04.068Z,57.69
2019-05-05T21:10:04.484Z,57.71
2019-05-05T21:15:04.875Z,57.84
2019-05-05T21:20:04.377Z,57.91
2019-05-05T21:25:04.844Z,58.1
2019-05-05T21:30:04.026Z,58.13
2019-05-05T21:35:02.689Z,58.18
2019-05-05T21:40:04.698Z,58.31
2019-05-05T21:45:04.619Z,58.4
2019-05-05T21:50:03.704Z,58.48
2019-05-05T21:55:04.246Z,58.52
2019-05-05T22:00:04.457Z,58.55
2019-05-05T22:05:04.014Z,58.59
2019-05-05T22:10:04.479Z,58.64
2019-05-05T22:15:04.266Z,58.71
2019-05-05T22:20:04.155Z,58.78
2019-05-05T22:25:03.649Z,58.85
2019-05-05T22:30:09.968Z,58.93
2019-05-05T22:35:02.995Z,59.03
2019-05-05T22:40:02.411Z,59.05
2019-05-05T22:45:04.607Z,59.07
2019-05-05T22:50:04.447Z,59.07
2019-05-05T22:55:04.587Z,59.16
2019-05-05T23:00:07.219Z,59.16
2019-05-05T23:05:04.063Z,59.27
2019-05-05T23:10:04.605Z,59.3
2019-05-05T23:15:04.027Z,59.35
2019-05-05T23:20:04.660Z,59.42
2019-05-05T23:25:04.135Z,59.46
2019-05-05T23:30:02.679Z,59.49
2019-05-05T23:35:03.202Z,59.55
2019-05-05T23:40:03.790Z,59.6
2019-05-05T23:45:04.439Z,59.62
2019-05-05T23:50:04.557Z,59.68
2019-05-05T23:55:04.019Z,59.69
